createdAt,value
2022-10-20T00:02:15.062Z,1013.31
2022-10-20T00:07:14.687Z,1013.17
2022-10-20T00:12:14.656Z,1013.24
2022-10-20T00:17:14.616Z,1013.18
2022-10-20T00:22:23.587Z,1013.16
2022-10-20T00:27:31.962Z,1013.08
2022-10-20T00:32:14.345Z,1013.00
2022-10-20T00:37:14.282Z,1013.05
2022-10-20T00:42:14.250Z,1012.94
2022-10-20T00:47:14.210Z,1012.87
2022-10-20T00:52:23.214Z,1012.95
2022-10-20T00:57:14.025Z,1012.85
2022-10-20T01:02:13.977Z,1012.72
2022-10-20T01:07:13.893Z,1012.78
2022-10-20T01:12:13.832Z,1012.72
2022-10-20T01:17:13.782Z,1012.56
2022-10-20T01:22:13.731Z,1012.60
2022-10-20T01:27:13.643Z,1012.37
2022-10-20T01:32:13.636Z,1012.36
2022-10-20T01:37:19.749Z,1012.30
2022-10-20T01:42:14.497Z,1012.26
2022-10-20T01:47:13.401Z,1012.15
2022-10-20T01:52:13.314Z,1012.08
2022-10-20T01:57:13.280Z,1011.97
2022-10-20T02:02:13.181Z,1011.92
2022-10-20T02:07:13.133Z,1011.93
2022-10-20T02:12:13.069Z,1011.70
2022-10-20T02:17:12.999Z,1011.48
2022-10-20T02:22:12.945Z,1011.32
2022-10-20T02:27:12.862Z,1011.29
2022-10-20T02:32:12.851Z,1011.28
2022-10-20T02:37:12.776Z,1011.12
2022-10-20T02:42:12.736Z,1011.04
2022-10-20T02:47:12.670Z,1010.96
2022-10-20T02:52:12.571Z,1011.01
2022-10-20T02:57:12.504Z,1010.98
2022-10-20T03:02:12.428Z,1010.94
2022-10-20T03:07:12.354Z,1010.89
2022-10-20T03:12:12.274Z,1010.84
2022-10-20T03:17:12.228Z,1010.81
2022-10-20T03:22:12.169Z,1010.83
2022-10-20T03:27:12.112Z,1010.78
2022-10-20T03:32:12.032Z,1010.78
2022-10-20T03:37:11.992Z,1010.69
2022-10-20T03:42:11.886Z,1010.70
2022-10-20T03:47:12.081Z,1010.70
2022-10-20T03:52:11.740Z,1010.73
2022-10-20T03:57:11.686Z,1010.74
2022-10-20T04:02:11.629Z,1010.75
2022-10-20T04:07:11.608Z,1010.78
2022-10-20T04:12:11.501Z,1010.73
2022-10-20T04:17:11.442Z,1010.58
2022-10-20T04:22:21.464Z,1010.57
2022-10-20T04:27:20.451Z,1010.47
2022-10-20T04:32:11.239Z,1010.42
2022-10-20T04:37:11.169Z,1010.43
2022-10-20T04:42:11.380Z,1010.35
2022-10-20T04:47:11.054Z,1010.25
2022-10-20T04:52:10.972Z,1010.23
2022-10-20T04:57:10.900Z,1010.16
2022-10-20T05:02:10.862Z,1010.02
2022-10-20T05:07:11.167Z,1009.93
2022-10-20T05:12:10.774Z,1009.95
2022-10-20T05:17:10.670Z,1009.92
2022-10-20T05:22:10.710Z,1009.80
2022-10-20T05:27:10.558Z,1009.78
2022-10-20T05:32:10.474Z,1009.82
2022-10-20T05:37:10.447Z,1009.82
2022-10-20T05:42:10.346Z,1009.72
2022-10-20T05:47:10.293Z,1009.64
2022-10-20T05:52:10.194Z,1009.64
2022-10-20T05:57:10.215Z,1009.66
2022-10-20T06:02:10.085Z,1009.71
2022-10-20T06:07:09.994Z,1009.60
2022-10-20T06:12:09.989Z,1009.72
2022-10-20T06:17:09.943Z,1009.71
2022-10-20T06:22:09.813Z,1009.64
2022-10-20T06:27:09.891Z,1009.68
2022-10-20T06:32:09.769Z,1009.66
2022-10-20T06:37:12.444Z,1009.67
2022-10-20T06:42:11.963Z,1009.62
2022-10-20T06:47:09.485Z,1009.71
2022-10-20T06:57:09.323Z,1009.80
2022-10-20T07:02:09.317Z,1009.74
2022-10-20T07:07:09.216Z,1009.72
2022-10-20T07:12:09.141Z,1009.65
2022-10-20T07:17:09.066Z,1009.70
2022-10-20T07:22:09.116Z,1009.63
2022-10-20T07:27:09.079Z,1009.54
2022-10-20T07:32:08.993Z,1009.46
2022-10-20T07:37:08.944Z,1009.46
2022-10-20T07:42:08.790Z,1009.33
2022-10-20T07:47:08.916Z,1009.30
2022-10-20T07:52:08.739Z,1009.43
2022-10-20T07:57:08.570Z,1009.22
2022-10-20T08:02:08.683Z,1009.17
2022-10-20T08:07:08.474Z,1009.12
2022-10-20T08:12:08.552Z,1009.03
2022-10-20T08:17:08.346Z,1009.02
2022-10-20T08:22:08.267Z,1008.91
2022-10-20T08:27:08.166Z,1008.87
2022-10-20T08:32:08.272Z,1008.84
2022-10-20T08:37:08.352Z,1008.67
2022-10-20T08:42:09.484Z,1008.80
2022-10-20T08:47:07.899Z,1008.73
2022-10-20T08:52:07.905Z,1008.55
2022-10-20T08:57:07.799Z,1008.60
2022-10-20T09:02:07.774Z,1008.57
2022-10-20T09:07:07.618Z,1008.45
2022-10-20T09:12:07.550Z,1008.39
2022-10-20T09:17:11.457Z,1008.46
2022-10-20T09:22:07.474Z,1008.52
2022-10-20T09:27:07.349Z,1008.55
2022-10-20T09:32:27.985Z,1008.37
2022-10-20T09:37:08.224Z,1008.32
2022-10-20T09:42:07.189Z,1008.38
2022-10-20T09:47:07.083Z,1008.36
2022-10-20T09:52:07.243Z,1008.16
2022-10-20T09:57:06.967Z,1008.20
2022-10-20T10:02:06.911Z,1008.16
2022-10-20T10:07:06.823Z,1008.17
2022-10-20T10:12:06.759Z,1008.23
2022-10-20T10:17:06.738Z,1008.16
2022-10-20T10:22:06.622Z,1008.09
2022-10-20T10:27:06.541Z,1008.13
2022-10-20T10:32:06.494Z,1008.04
2022-10-20T10:37:06.440Z,1007.95
2022-10-20T10:42:06.384Z,1007.80
2022-10-20T10:47:06.275Z,1007.74
2022-10-20T10:52:06.235Z,1007.78
2022-10-20T10:57:07.985Z,1007.72
2022-10-20T11:02:06.115Z,1007.52
2022-10-20T11:07:06.026Z,1007.59
2022-10-20T11:12:06.027Z,1007.50
2022-10-20T11:17:05.976Z,1007.43
2022-10-20T11:22:07.625Z,1007.34
2022-10-20T11:27:05.865Z,1007.40
2022-10-20T11:32:05.775Z,1007.35
2022-10-20T11:37:05.662Z,1007.25
2022-10-20T11:42:05.733Z,1007.26
2022-10-20T11:47:05.515Z,1007.15
2022-10-20T11:52:05.448Z,1007.12
2022-10-20T11:57:05.357Z,1007.10
2022-10-20T12:02:05.412Z,1007.06
2022-10-20T12:07:14.286Z,1006.89
2022-10-20T12:12:05.245Z,1006.97
2022-10-20T12:17:05.106Z,1006.92
2022-10-20T12:22:05.156Z,1006.94
2022-10-20T12:27:05.017Z,1006.87
2022-10-20T12:32:05.003Z,1006.88
2022-10-20T12:37:04.912Z,1006.66
2022-10-20T12:42:04.783Z,1006.54
2022-10-20T12:47:04.741Z,1006.50
2022-10-20T12:52:04.704Z,1006.45
2022-10-20T12:57:04.830Z,1006.34
2022-10-20T13:02:04.546Z,1006.38
2022-10-20T13:07:04.494Z,1006.24
2022-10-20T13:12:04.464Z,1006.39
2022-10-20T13:17:04.319Z,1006.35
2022-10-20T13:22:04.289Z,1006.38
2022-10-20T13:27:04.204Z,1006.34
2022-10-20T13:32:04.473Z,1006.22
2022-10-20T13:37:04.114Z,1006.01
2022-10-20T13:42:04.007Z,1006.05
2022-10-20T13:47:04.222Z,1005.92
2022-10-20T13:52:03.889Z,1005.81
2022-10-20T13:57:03.831Z,1005.75
2022-10-20T14:02:03.783Z,1005.97
2022-10-20T14:07:03.762Z,1005.95
2022-10-20T14:12:03.646Z,1005.83
2022-10-20T14:17:03.555Z,1005.86
2022-10-20T14:22:03.462Z,1005.79
2022-10-20T14:27:03.507Z,1005.69
2022-10-20T14:32:03.597Z,1005.69
2022-10-20T14:37:03.292Z,1005.66
2022-10-20T14:42:03.241Z,1005.66
2022-10-20T14:47:03.154Z,1005.59
2022-10-20T14:52:03.095Z,1005.56
2022-10-20T14:57:03.027Z,1005.45
2022-10-20T15:02:03.001Z,1005.29
2022-10-20T15:07:03.016Z,1005.27
2022-10-20T15:12:02.825Z,1005.34
2022-10-20T15:17:02.772Z,1005.42
2022-10-20T15:22:02.737Z,1005.29
2022-10-20T15:27:02.823Z,1005.33
2022-10-20T15:32:02.545Z,1005.36
2022-10-20T15:37:02.527Z,1005.19
2022-10-20T15:42:02.437Z,1005.08
2022-10-20T15:47:02.399Z,1004.88
2022-10-20T15:52:02.331Z,1005.05
2022-10-20T15:57:02.334Z,1005.05
2022-10-20T16:02:02.401Z,1005.03
2022-10-20T16:07:03.235Z,1004.92
2022-10-20T16:12:02.222Z,1004.84
2022-10-20T16:17:02.887Z,1004.73
2022-10-20T16:22:01.946Z,1004.82
2022-10-20T16:32:01.771Z,1005.09
2022-10-20T16:37:01.769Z,1005.07
2022-10-20T16:42:01.673Z,1004.91
2022-10-20T16:47:02.036Z,1004.92
2022-10-20T16:52:02.362Z,1004.81
2022-10-20T16:57:01.416Z,1004.78
2022-10-20T17:02:01.393Z,1004.82
2022-10-20T17:07:01.341Z,1004.68
2022-10-20T17:12:01.663Z,1004.59
2022-10-20T17:17:01.416Z,1004.62
2022-10-20T17:22:01.238Z,1004.54
2022-10-20T17:27:01.042Z,1004.68
2022-10-20T17:32:00.968Z,1004.63
2022-10-20T17:37:02.145Z,1004.56
2022-10-20T17:42:00.820Z,1004.64
2022-10-20T17:47:00.778Z,1004.64
2022-10-20T17:52:00.844Z,1004.70
2022-10-20T17:57:00.652Z,1004.60
2022-10-20T18:02:00.625Z,1004.47
2022-10-20T18:07:01.239Z,1004.38
2022-10-20T18:12:00.583Z,1004.41
2022-10-20T18:17:00.382Z,1004.29
2022-10-20T18:22:00.349Z,1004.24
2022-10-20T18:27:00.558Z,1004.09
2022-10-20T18:32:00.217Z,1004.06
2022-10-20T18:37:00.348Z,1004.02
2022-10-20T18:42:00.086Z,1003.96
2022-10-20T18:46:59.992Z,1003.76
2022-10-20T18:51:59.949Z,1003.70
2022-10-20T18:57:00.620Z,1003.69
2022-10-20T19:02:00.506Z,1003.75
2022-10-20T19:06:59.792Z,1003.59
2022-10-20T19:11:59.715Z,1003.73
2022-10-20T19:17:00.701Z,1003.63
2022-10-20T19:21:59.514Z,1003.74
2022-10-20T19:32:00.449Z,1003.42
2022-10-20T19:36:59.397Z,1003.32
2022-10-20T19:41:59.423Z,1003.30
2022-10-20T19:46:59.199Z,1003.18
2022-10-20T19:51:59.170Z,1003.25
2022-10-20T19:57:09.383Z,1003.19
2022-10-20T20:02:08.323Z,1003.06
2022-10-20T20:07:02.191Z,1003.43
2022-10-20T20:11:59.764Z,1003.50
2022-10-20T20:16:58.823Z,1003.55
2022-10-20T20:21:58.743Z,1003.59
2022-10-20T20:26:58.719Z,1003.40
2022-10-20T20:31:58.612Z,1003.46
2022-10-20T20:36:58.635Z,1003.15
2022-10-20T20:41:58.524Z,1003.24
2022-10-20T20:46:58.457Z,1003.16
2022-10-20T20:51:58.380Z,1003.20
2022-10-20T20:56:58.290Z,1003.00
2022-10-20T21:01:58.241Z,1003.01
2022-10-20T21:07:02.182Z,1003.24
2022-10-20T21:11:58.125Z,1003.10
2022-10-20T21:16:58.044Z,1003.00
2022-10-20T21:21:57.984Z,1003.10
2022-10-20T21:26:57.882Z,1003.69
2022-10-20T21:31:57.866Z,1003.48
2022-10-20T21:36:57.777Z,1003.49
2022-10-20T21:41:57.724Z,1003.79
2022-10-20T21:46:57.625Z,1003.87
2022-10-20T21:51:57.550Z,1003.90
2022-10-20T21:56:57.492Z,1003.88
2022-10-20T22:01:57.419Z,1003.88
2022-10-20T22:06:57.343Z,1003.88
2022-10-20T22:11:57.283Z,1004.03
2022-10-20T22:16:57.265Z,1003.86
2022-10-20T22:26:57.088Z,1003.91
2022-10-20T22:31:57.081Z,1003.74
2022-10-20T22:36:56.965Z,1003.65
2022-10-20T22:41:56.933Z,1003.73
2022-10-20T22:46:56.812Z,1003.79
2022-10-20T22:51:56.757Z,1003.77
2022-10-20T22:56:56.766Z,1003.64
2022-10-20T23:01:56.629Z,1003.48
2022-10-20T23:06:56.580Z,1003.47
2022-10-20T23:11:56.511Z,1003.32
2022-10-20T23:16:56.493Z,1003.33
2022-10-20T23:21:56.345Z,1003.25
2022-10-20T23:26:56.293Z,1003.15
2022-10-20T23:31:56.235Z,1003.09
2022-10-20T23:36:56.176Z,1003.08
2022-10-20T23:41:56.108Z,1003.20
2022-10-20T23:46:56.042Z,1003.37
2022-10-20T23:51:55.992Z,1003.30
2022-10-20T23:57:04.551Z,1003.33
